createdAt,value
2022-11-06T00:03:19.579Z,3.80
2022-11-06T00:08:30.740Z,3.80
2022-11-06T00:13:33.097Z,3.90
2022-11-06T00:18:36.789Z,4.00
2022-11-06T00:23:39.746Z,3.90
2022-11-06T00:28:42.435Z,3.90
2022-11-06T00:33:45.552Z,3.90
2022-11-06T00:38:51.255Z,3.90
2022-11-06T00:43:58.776Z,3.70
2022-11-06T00:49:01.172Z,3.80
2022-11-06T00:54:05.408Z,3.80
2022-11-06T00:59:11.570Z,3.60
2022-11-06T01:04:19.764Z,3.70
2022-11-06T01:09:24.572Z,3.80
2022-11-06T01:14:28.185Z,3.80
2022-11-06T01:19:30.590Z,3.70
2022-11-06T01:24:33.127Z,3.60
2022-11-06T01:29:36.014Z,3.50
2022-11-06T01:34:38.574Z,3.60
2022-11-06T01:39:40.969Z,3.60
2022-11-06T01:44:43.369Z,3.70
2022-11-06T01:49:46.480Z,3.60
2022-11-06T01:54:52.544Z,3.70
2022-11-06T01:59:56.062Z,3.80
2022-11-06T02:04:58.519Z,3.70
2022-11-06T02:10:00.937Z,3.80
2022-11-06T02:15:18.272Z,3.80
2022-11-06T02:20:35.718Z,3.80
2022-11-06T02:25:50.258Z,3.70
2022-11-06T02:30:54.238Z,3.70
2022-11-06T02:36:01.653Z,3.80
2022-11-06T02:41:09.618Z,3.80
2022-11-06T02:46:20.290Z,3.80
2022-11-06T02:51:26.327Z,3.80
2022-11-06T02:56:33.555Z,3.80
2022-11-06T03:01:47.099Z,3.80
2022-11-06T03:06:56.745Z,4.00
2022-11-06T03:12:14.179Z,3.90
2022-11-06T03:17:29.642Z,3.90
2022-11-06T03:23:01.063Z,3.90
2022-11-06T03:28:23.951Z,3.60
2022-11-06T03:33:42.928Z,3.60
2022-11-06T03:38:50.281Z,3.50
2022-11-06T03:43:56.331Z,3.40
2022-11-06T03:49:04.345Z,3.70
2022-11-06T03:54:17.356Z,3.50
2022-11-06T03:59:23.537Z,3.40
2022-11-06T04:04:35.315Z,3.30
2022-11-06T04:09:59.656Z,3.30
2022-11-06T04:15:03.233Z,3.50
2022-11-06T04:20:09.759Z,3.60
2022-11-06T04:25:37.602Z,3.20
2022-11-06T04:31:05.901Z,3.30
2022-11-06T04:36:32.311Z,3.10
2022-11-06T04:41:43.765Z,3.00
2022-11-06T04:46:53.233Z,3.00
2022-11-06T04:51:57.889Z,2.90
2022-11-06T04:57:01.078Z,2.90
2022-11-06T05:02:05.526Z,2.90
2022-11-06T05:07:08.849Z,2.80
2022-11-06T05:12:11.471Z,2.80
2022-11-06T05:17:13.919Z,2.80
2022-11-06T05:22:34.979Z,2.60
2022-11-06T05:27:37.438Z,2.70
2022-11-06T05:32:39.849Z,2.80
2022-11-06T05:37:42.234Z,2.70
2022-11-06T05:42:44.974Z,2.60
2022-11-06T05:47:47.411Z,3.00
2022-11-06T05:52:49.920Z,2.70
2022-11-06T05:57:52.365Z,2.60
2022-11-06T06:02:54.810Z,2.50
2022-11-06T06:07:57.336Z,2.50
2022-11-06T06:12:59.691Z,2.40
2022-11-06T06:18:02.094Z,2.40
2022-11-06T06:23:08.318Z,2.40
2022-11-06T06:28:12.089Z,2.30
2022-11-06T06:33:14.909Z,2.40
2022-11-06T06:38:17.251Z,2.40
2022-11-06T06:43:19.681Z,2.50
2022-11-06T06:48:22.063Z,2.60
2022-11-06T06:53:25.098Z,2.70
2022-11-06T06:58:29.148Z,2.80
2022-11-06T07:03:32.758Z,2.80
2022-11-06T07:08:35.262Z,2.80
2022-11-06T07:13:37.869Z,2.90
2022-11-06T07:18:41.044Z,3.10
2022-11-06T07:23:43.531Z,3.30
2022-11-06T07:28:47.449Z,3.60
2022-11-06T07:33:49.888Z,3.70
2022-11-06T07:38:52.338Z,4.00
2022-11-06T07:43:54.755Z,4.10
2022-11-06T07:48:57.193Z,4.40
2022-11-06T07:53:59.629Z,4.70
2022-11-06T07:59:02.044Z,5.00
2022-11-06T08:04:04.588Z,5.10
2022-11-06T08:09:08.419Z,5.30
2022-11-06T08:14:11.632Z,5.40
2022-11-06T08:19:14.101Z,5.60
2022-11-06T08:24:21.534Z,5.70
2022-11-06T08:29:24.373Z,5.90
2022-11-06T08:34:26.765Z,6.30
2022-11-06T08:39:29.752Z,6.10
2022-11-06T08:44:32.221Z,6.40
2022-11-06T08:49:34.683Z,6.70
2022-11-06T08:54:37.162Z,6.90
2022-11-06T08:59:42.102Z,7.00
2022-11-06T09:04:44.494Z,7.10
2022-11-06T09:09:46.903Z,7.20
2022-11-06T09:14:49.444Z,7.50
2022-11-06T09:19:54.960Z,7.70
2022-11-06T09:25:03.551Z,7.80
2022-11-06T09:30:07.291Z,8.00
2022-11-06T09:35:09.782Z,8.00
2022-11-06T09:40:29.922Z,8.10
2022-11-06T09:45:34.360Z,8.30
2022-11-06T09:50:47.301Z,8.60
2022-11-06T09:55:50.280Z,8.50
2022-11-06T10:00:54.374Z,8.70
2022-11-06T10:05:57.024Z,8.80
2022-11-06T10:11:14.683Z,9.00
2022-11-06T10:16:38.198Z,9.20
2022-11-06T10:22:16.509Z,9.40
2022-11-06T10:27:27.239Z,9.40
2022-11-06T10:32:47.338Z,9.70
2022-11-06T10:38:15.774Z,9.80
2022-11-06T10:43:34.822Z,9.90
2022-11-06T10:48:41.787Z,10.20
2022-11-06T10:54:05.890Z,10.30
2022-11-06T10:59:08.620Z,10.40
2022-11-06T11:04:11.282Z,10.60
2022-11-06T11:09:34.258Z,10.70
2022-11-06T11:14:36.702Z,10.60
2022-11-06T11:19:44.374Z,10.80
2022-11-06T11:25:08.538Z,10.80
2022-11-06T11:30:22.914Z,10.80
2022-11-06T11:35:30.850Z,11.00
2022-11-06T11:40:38.414Z,11.00
2022-11-06T11:45:40.818Z,11.00
2022-11-06T11:50:43.305Z,11.00
2022-11-06T11:55:49.066Z,11.00
2022-11-06T12:01:01.495Z,11.30
2022-11-06T12:06:07.975Z,11.10
2022-11-06T12:11:15.500Z,11.00
2022-11-06T12:16:20.163Z,11.30
2022-11-06T12:21:29.344Z,11.10
2022-11-06T12:26:48.337Z,11.00
2022-11-06T12:32:07.889Z,10.90
2022-11-06T12:37:44.621Z,11.00
2022-11-06T12:43:01.098Z,11.10
2022-11-06T12:48:22.836Z,11.10
2022-11-06T12:53:45.486Z,11.10
2022-11-06T12:59:03.345Z,11.20
2022-11-06T13:04:10.140Z,11.10
2022-11-06T13:09:24.371Z,11.10
2022-11-06T13:14:30.225Z,11.00
2022-11-06T13:20:04.885Z,10.90
2022-11-06T13:25:27.967Z,11.00
2022-11-06T13:30:31.804Z,10.90
2022-11-06T13:35:38.984Z,11.10
2022-11-06T13:40:44.365Z,10.90
2022-11-06T13:46:10.759Z,11.00
2022-11-06T13:51:38.504Z,10.70
2022-11-06T13:56:51.860Z,10.60
2022-11-06T14:02:22.405Z,10.60
2022-11-06T14:07:29.627Z,10.50
2022-11-06T14:12:32.133Z,10.40
2022-11-06T14:17:34.631Z,10.30
2022-11-06T14:22:38.338Z,10.10
2022-11-06T14:27:40.723Z,10.00
2022-11-06T14:32:47.017Z,10.00
2022-11-06T14:37:49.396Z,9.70
2022-11-06T14:42:51.813Z,9.60
2022-11-06T14:47:56.615Z,9.50
2022-11-06T14:53:19.717Z,9.40
2022-11-06T14:58:35.778Z,9.30
2022-11-06T15:03:51.226Z,9.10
2022-11-06T15:09:02.240Z,8.90
2022-11-06T15:14:08.848Z,8.70
2022-11-06T15:19:17.389Z,8.60
2022-11-06T15:24:23.730Z,8.40
2022-11-06T15:29:31.602Z,8.30
2022-11-06T15:34:51.109Z,8.10
2022-11-06T15:40:00.606Z,8.00
2022-11-06T15:45:15.657Z,8.10
2022-11-06T15:50:32.728Z,7.70
2022-11-06T15:55:38.490Z,7.60
2022-11-06T16:00:41.593Z,7.40
2022-11-06T16:05:45.742Z,7.30
2022-11-06T16:10:48.750Z,7.10
2022-11-06T16:16:00.573Z,7.00
2022-11-06T16:21:19.150Z,6.90
2022-11-06T16:26:35.660Z,6.70
2022-11-06T16:31:38.583Z,6.50
2022-11-06T16:36:58.830Z,6.30
2022-11-06T16:42:21.679Z,6.20
2022-11-06T16:47:24.082Z,6.20
2022-11-06T16:52:32.796Z,6.10
2022-11-06T16:57:53.295Z,6.10
2022-11-06T17:03:05.667Z,5.90
2022-11-06T17:08:27.730Z,5.80
2022-11-06T17:13:33.719Z,5.60
2022-11-06T17:18:38.107Z,5.60
2022-11-06T17:23:41.414Z,5.60
2022-11-06T17:28:44.022Z,5.50
2022-11-06T17:33:47.029Z,5.40
2022-11-06T17:38:49.535Z,5.20
2022-11-06T17:43:51.938Z,5.10
2022-11-06T17:48:55.267Z,5.20
2022-11-06T17:53:59.010Z,5.10
2022-11-06T17:59:01.429Z,5.00
2022-11-06T18:04:04.248Z,4.90
2022-11-06T18:09:08.133Z,4.80
2022-11-06T18:14:11.308Z,5.10
2022-11-06T18:19:17.525Z,4.80
2022-11-06T18:24:20.127Z,4.90
2022-11-06T18:29:22.571Z,5.10
2022-11-06T18:34:25.005Z,4.70
2022-11-06T18:39:27.480Z,4.60
2022-11-06T18:44:29.905Z,4.50
2022-11-06T18:49:32.363Z,4.50
2022-11-06T18:54:34.841Z,4.80
2022-11-06T18:59:37.220Z,4.40
2022-11-06T19:04:39.865Z,4.40
2022-11-06T19:09:42.637Z,4.30
2022-11-06T19:14:45.030Z,4.20
2022-11-06T19:19:47.636Z,4.20
2022-11-06T19:24:50.018Z,4.10
2022-11-06T19:29:52.756Z,4.10
2022-11-06T19:34:55.153Z,4.20
2022-11-06T19:40:02.750Z,4.10
2022-11-06T19:45:08.614Z,4.40
2022-11-06T19:50:11.213Z,4.20
2022-11-06T19:55:26.914Z,4.40
2022-11-06T20:00:33.296Z,4.60
2022-11-06T20:05:35.945Z,4.70
2022-11-06T20:10:38.597Z,4.70
2022-11-06T20:15:41.043Z,4.70
2022-11-06T20:20:43.455Z,4.80
2022-11-06T20:25:45.846Z,4.90
2022-11-06T20:30:49.018Z,4.70
2022-11-06T20:35:51.737Z,4.60
2022-11-06T20:40:57.046Z,4.60
2022-11-06T20:46:03.737Z,4.70
2022-11-06T20:51:09.130Z,4.80
2022-11-06T20:56:14.797Z,4.50
2022-11-06T21:01:20.327Z,4.40
2022-11-06T21:06:24.402Z,4.30
2022-11-06T21:11:27.707Z,4.40
2022-11-06T21:16:33.920Z,4.00
2022-11-06T21:21:39.645Z,3.90
2022-11-06T21:26:42.451Z,3.80
2022-11-06T21:31:49.195Z,3.70
2022-11-06T21:36:51.864Z,3.70
2022-11-06T21:41:54.242Z,3.60
2022-11-06T21:46:56.615Z,3.60
2022-11-06T21:52:18.985Z,3.50
2022-11-06T21:57:21.383Z,3.50
2022-11-06T22:02:23.915Z,3.40
2022-11-06T22:07:26.377Z,3.30
2022-11-06T22:12:28.812Z,3.30
2022-11-06T22:17:31.422Z,3.30
2022-11-06T22:22:33.849Z,3.30
2022-11-06T22:27:40.687Z,3.30
2022-11-06T22:32:43.512Z,3.30
2022-11-06T22:37:45.947Z,3.30
2022-11-06T22:42:50.017Z,3.30
2022-11-06T22:47:53.943Z,3.30
2022-11-06T22:52:56.319Z,3.30
2022-11-06T22:57:58.747Z,3.30
2022-11-06T23:03:01.420Z,3.30
2022-11-06T23:08:04.210Z,3.30
2022-11-06T23:13:07.114Z,3.30
2022-11-06T23:18:09.578Z,3.20
2022-11-06T23:23:12.117Z,3.20
2022-11-06T23:28:14.712Z,3.10
2022-11-06T23:33:17.302Z,3.10
2022-11-06T23:38:19.809Z,3.10
2022-11-06T23:43:22.214Z,3.10
2022-11-06T23:48:24.657Z,3.10
2022-11-06T23:53:27.050Z,3.10
2022-11-06T23:58:29.475Z,3.10
